createdAt,value
2023-01-17T00:02:56.265Z,93.0
2023-01-17T00:07:56.175Z,94.0
2023-01-17T00:12:56.197Z,95.0
2023-01-17T00:17:56.092Z,95.5
2023-01-17T00:22:56.091Z,95.5
2023-01-17T00:27:56.115Z,95.0
2023-01-17T00:32:56.097Z,95.0
2023-01-17T00:37:56.108Z,93.5
2023-01-17T00:42:56.195Z,90.5
2023-01-17T00:47:56.967Z,89.0
2023-01-17T00:57:56.206Z,89.0
2023-01-17T01:02:56.211Z,90.0
2023-01-17T01:07:56.209Z,90.5
2023-01-17T01:12:56.188Z,91.0
2023-01-17T01:17:56.202Z,91.5
2023-01-17T01:22:56.205Z,92.5
2023-01-17T01:27:56.205Z,92.5
2023-01-17T01:32:56.227Z,93.0
2023-01-17T01:37:56.203Z,93.0
2023-01-17T01:42:56.205Z,93.0
2023-01-17T01:47:56.210Z,93.5
2023-01-17T01:52:56.274Z,93.5
2023-01-17T01:57:56.219Z,93.5
2023-01-17T02:02:56.225Z,93.5
2023-01-17T02:07:56.228Z,93.5
2023-01-17T02:12:56.231Z,93.5
2023-01-17T02:17:56.231Z,93.5
2023-01-17T02:22:56.234Z,93.5
2023-01-17T02:27:56.237Z,93.5
2023-01-17T02:32:56.241Z,94.0
2023-01-17T02:37:56.249Z,94.0
2023-01-17T02:42:56.244Z,94.5
2023-01-17T02:47:56.247Z,94.5
2023-01-17T02:52:56.262Z,94.5
2023-01-17T02:57:56.246Z,94.5
2023-01-17T03:02:56.256Z,94.5
2023-01-17T03:07:56.262Z,94.5
2023-01-17T03:12:56.255Z,94.0
2023-01-17T03:17:56.260Z,94.0
2023-01-17T03:22:56.264Z,94.0
2023-01-17T03:27:56.269Z,93.5
2023-01-17T03:32:56.275Z,93.5
2023-01-17T03:37:56.273Z,93.0
2023-01-17T03:42:56.293Z,92.5
2023-01-17T03:47:56.278Z,92.5
2023-01-17T03:52:56.278Z,92.0
2023-01-17T03:57:56.278Z,92.0
2023-01-17T04:02:56.338Z,92.0
2023-01-17T04:07:56.288Z,92.0
2023-01-17T04:12:56.288Z,92.0
2023-01-17T04:17:56.292Z,92.0
2023-01-17T04:22:56.299Z,92.0
2023-01-17T04:27:56.297Z,92.5
2023-01-17T04:32:56.296Z,92.5
2023-01-17T04:37:56.306Z,92.5
2023-01-17T04:42:56.300Z,92.5
2023-01-17T04:47:56.302Z,93.0
2023-01-17T04:52:56.314Z,93.0
2023-01-17T04:57:56.312Z,93.0
2023-01-17T05:02:56.361Z,93.0
2023-01-17T05:07:56.318Z,92.5
2023-01-17T05:12:56.335Z,92.0
2023-01-17T05:17:56.323Z,92.0
2023-01-17T05:22:56.346Z,91.5
2023-01-17T05:27:56.324Z,92.0
2023-01-17T05:32:56.331Z,92.0
2023-01-17T05:37:56.328Z,92.0
2023-01-17T05:42:56.331Z,92.0
2023-01-17T05:47:56.361Z,92.5
2023-01-17T05:52:56.351Z,92.0
2023-01-17T05:57:56.345Z,92.0
2023-01-17T06:02:56.414Z,91.5
2023-01-17T06:07:56.344Z,91.5
2023-01-17T06:12:56.341Z,91.5
2023-01-17T06:17:56.342Z,91.5
2023-01-17T06:22:56.362Z,92.0
2023-01-17T06:27:56.347Z,92.0
2023-01-17T06:32:56.391Z,92.0
2023-01-17T06:37:56.350Z,92.0
2023-01-17T06:42:56.354Z,92.0
2023-01-17T06:47:56.357Z,92.0
2023-01-17T06:52:56.360Z,92.0
2023-01-17T06:57:56.359Z,92.0
2023-01-17T07:02:56.368Z,92.0
2023-01-17T07:07:56.369Z,92.0
2023-01-17T07:12:56.364Z,92.0
2023-01-17T07:17:56.370Z,92.0
2023-01-17T07:22:56.387Z,92.0
2023-01-17T07:27:56.377Z,92.0
2023-01-17T07:32:56.413Z,92.0
2023-01-17T07:37:56.380Z,92.0
2023-01-17T07:42:56.384Z,92.0
2023-01-17T07:47:56.399Z,92.0
2023-01-17T07:52:56.431Z,91.5
2023-01-17T07:57:56.389Z,92.0
2023-01-17T08:02:56.389Z,92.0
2023-01-17T08:07:56.396Z,92.0
2023-01-17T08:12:56.391Z,92.0
2023-01-17T08:17:56.414Z,92.0
2023-01-17T08:22:56.401Z,92.0
2023-01-17T08:27:56.413Z,91.5
2023-01-17T08:32:56.408Z,91.5
2023-01-17T08:37:56.430Z,91.5
2023-01-17T08:42:56.415Z,91.5
2023-01-17T08:47:56.407Z,91.5
2023-01-17T08:52:56.413Z,91.5
2023-01-17T08:57:56.416Z,91.5
2023-01-17T09:02:56.422Z,91.5
2023-01-17T09:07:56.420Z,91.5
2023-01-17T09:12:56.430Z,91.5
2023-01-17T09:17:56.427Z,91.5
2023-01-17T09:22:56.428Z,91.5
2023-01-17T09:27:56.430Z,91.5
2023-01-17T09:32:56.428Z,91.0
2023-01-17T09:37:57.308Z,91.0
2023-01-17T09:42:56.444Z,91.0
2023-01-17T09:47:56.435Z,91.0
2023-01-17T09:52:56.441Z,91.0
2023-01-17T09:57:56.482Z,91.5
2023-01-17T10:02:56.711Z,91.5
2023-01-17T10:07:56.456Z,91.0
2023-01-17T10:12:56.456Z,91.0
2023-01-17T10:17:56.463Z,91.0
2023-01-17T10:22:56.465Z,91.0
2023-01-17T10:27:56.481Z,91.0
2023-01-17T10:32:56.491Z,91.0
2023-01-17T10:37:56.473Z,91.0
2023-01-17T10:42:56.475Z,90.5
2023-01-17T10:47:56.487Z,90.5
2023-01-17T10:52:56.502Z,90.5
2023-01-17T10:57:56.481Z,90.5
2023-01-17T11:02:56.467Z,89.5
2023-01-17T11:07:56.396Z,89.5
2023-01-17T11:12:56.400Z,89.0
2023-01-17T11:17:56.410Z,88.5
2023-01-17T11:22:56.409Z,88.0
2023-01-17T11:27:56.414Z,87.5
2023-01-17T11:32:56.415Z,85.0
2023-01-17T11:37:56.417Z,84.5
2023-01-17T11:42:56.433Z,85.0
2023-01-17T11:47:56.420Z,84.5
2023-01-17T11:52:56.552Z,83.0
2023-01-17T11:57:56.571Z,83.5
2023-01-17T12:02:56.532Z,82.0
2023-01-17T12:07:56.528Z,82.0
2023-01-17T12:12:56.543Z,81.5
2023-01-17T12:17:56.532Z,81.0
2023-01-17T12:22:56.544Z,79.5
2023-01-17T12:27:56.544Z,79.0
2023-01-17T12:32:56.559Z,78.5
2023-01-17T12:38:05.023Z,78.0
2023-01-17T12:42:56.561Z,77.0
2023-01-17T12:47:56.569Z,75.5
2023-01-17T12:57:56.557Z,74.5
2023-01-17T13:02:56.629Z,74.5
2023-01-17T13:07:56.569Z,75.0
2023-01-17T13:12:56.565Z,73.5
2023-01-17T13:17:56.576Z,73.0
2023-01-17T13:22:56.573Z,73.5
2023-01-17T13:27:56.579Z,72.5
2023-01-17T13:32:56.579Z,71.0
2023-01-17T13:37:56.582Z,71.0
2023-01-17T13:42:56.583Z,69.0
2023-01-17T13:47:56.587Z,68.0
2023-01-17T13:52:56.598Z,68.5
2023-01-17T13:57:56.636Z,68.0
2023-01-17T14:02:56.639Z,67.5
2023-01-17T14:07:56.721Z,66.5
2023-01-17T14:12:56.644Z,66.5
2023-01-17T14:17:56.609Z,65.0
2023-01-17T14:22:56.661Z,66.0
2023-01-17T14:27:56.644Z,65.5
2023-01-17T14:32:56.618Z,65.0
2023-01-17T14:37:56.661Z,63.5
2023-01-17T14:42:56.615Z,64.0
2023-01-17T14:47:56.621Z,64.5
2023-01-17T14:52:56.530Z,64.5
2023-01-17T14:57:56.653Z,65.0
2023-01-17T15:02:56.752Z,65.0
2023-01-17T15:07:56.626Z,65.5
2023-01-17T15:12:56.583Z,66.0
2023-01-17T15:17:56.657Z,66.0
2023-01-17T15:22:56.527Z,66.0
2023-01-17T15:27:56.640Z,66.5
2023-01-17T15:32:56.635Z,67.0
2023-01-17T15:37:56.643Z,67.0
2023-01-17T15:42:56.543Z,67.5
2023-01-17T15:47:56.544Z,67.5
2023-01-17T15:52:56.555Z,67.5
2023-01-17T15:57:56.549Z,68.0
2023-01-17T16:02:56.661Z,68.0
2023-01-17T16:07:56.549Z,68.5
2023-01-17T16:12:56.552Z,68.5
2023-01-17T16:17:56.661Z,69.0
2023-01-17T16:22:56.668Z,69.5
2023-01-17T16:27:56.660Z,70.0
2023-01-17T16:32:56.660Z,70.5
2023-01-17T16:37:56.647Z,70.5
2023-01-17T16:42:56.659Z,71.5
2023-01-17T16:47:56.656Z,71.5
2023-01-17T16:52:56.657Z,72.0
2023-01-17T16:57:56.661Z,72.0
2023-01-17T17:02:56.708Z,72.5
2023-01-17T17:07:57.056Z,72.5
2023-01-17T17:12:56.667Z,73.0
2023-01-17T17:17:56.675Z,73.0
2023-01-17T17:22:56.668Z,73.5
2023-01-17T17:27:56.666Z,74.0
2023-01-17T17:32:56.666Z,74.0
2023-01-17T17:37:56.669Z,74.5
2023-01-17T17:42:56.729Z,74.5
2023-01-17T17:47:56.683Z,75.0
2023-01-17T17:52:56.679Z,75.5
2023-01-17T17:57:56.686Z,75.5
2023-01-17T18:02:56.692Z,76.0
2023-01-17T18:07:56.774Z,76.0
2023-01-17T18:12:56.696Z,76.5
2023-01-17T18:17:56.687Z,76.5
2023-01-17T18:22:56.684Z,76.5
2023-01-17T18:27:56.685Z,76.5
2023-01-17T18:32:56.690Z,77.0
2023-01-17T18:37:56.716Z,77.0
2023-01-17T18:42:57.114Z,77.5
2023-01-17T18:47:56.934Z,77.5
2023-01-17T18:52:56.946Z,77.5
2023-01-17T18:57:57.023Z,77.5
2023-01-17T19:02:56.700Z,79.0
2023-01-17T19:07:57.014Z,80.0
2023-01-17T19:12:56.810Z,80.0
2023-01-17T19:17:57.110Z,80.0
2023-01-17T19:22:56.720Z,79.5
2023-01-17T19:27:57.223Z,80.0
2023-01-17T19:32:56.719Z,80.0
2023-01-17T19:37:57.242Z,80.0
2023-01-17T19:42:56.715Z,80.5
2023-01-17T19:47:57.122Z,80.5
2023-01-17T19:52:56.723Z,80.5
2023-01-17T19:57:57.091Z,80.5
2023-01-17T20:02:56.821Z,80.5
2023-01-17T20:07:57.047Z,81.0
2023-01-17T20:12:56.738Z,81.0
2023-01-17T20:17:57.203Z,81.0
2023-01-17T20:22:56.735Z,81.0
2023-01-17T20:27:57.103Z,81.5
2023-01-17T20:32:56.740Z,81.5
2023-01-17T20:37:57.036Z,81.5
2023-01-17T20:42:56.742Z,82.0
2023-01-17T20:47:57.081Z,82.0
2023-01-17T20:52:56.750Z,82.0
2023-01-17T20:57:57.110Z,82.0
2023-01-17T21:02:56.894Z,82.0
2023-01-17T21:07:57.128Z,82.5
2023-01-17T21:12:56.760Z,82.0
2023-01-17T21:17:57.139Z,82.0
2023-01-17T21:22:56.770Z,82.0
2023-01-17T21:27:57.071Z,82.0
2023-01-17T21:32:56.767Z,82.0
2023-01-17T21:37:57.115Z,82.0
2023-01-17T21:42:56.774Z,82.0
2023-01-17T21:47:57.084Z,82.0
2023-01-17T21:52:56.779Z,82.0
2023-01-17T21:57:57.194Z,82.0
2023-01-17T22:02:58.872Z,82.0
2023-01-17T22:07:57.050Z,82.0
2023-01-17T22:12:56.796Z,82.0
2023-01-17T22:17:57.060Z,82.0
2023-01-17T22:22:57.254Z,82.0
2023-01-17T22:27:57.058Z,82.0
2023-01-17T22:32:57.127Z,82.0
2023-01-17T22:37:56.820Z,82.0
2023-01-17T22:42:57.227Z,82.0
2023-01-17T22:47:56.806Z,82.0
2023-01-17T22:52:57.236Z,82.0
2023-01-17T22:57:56.815Z,82.0
2023-01-17T23:02:57.290Z,82.0
2023-01-17T23:07:56.816Z,82.0
2023-01-17T23:12:57.201Z,82.0
2023-01-17T23:17:56.825Z,82.0
2023-01-17T23:22:57.146Z,82.0
2023-01-17T23:27:56.845Z,82.0
2023-01-17T23:32:57.128Z,82.0
2023-01-17T23:37:56.832Z,82.0
2023-01-17T23:42:57.178Z,82.0
2023-01-17T23:47:56.830Z,82.0
2023-01-17T23:52:57.153Z,82.0
2023-01-17T23:57:56.844Z,82.0
